sensor_id;sensor_type;location;lat;lon;timestamp;pressure;altitude;pressure_sealevel;temperature;humidity
49463;BME280;35357;51.722;0.500;2023-10-13T00:00:09;100563.30;;;17.69;100.00
49463;BME280;35357;51.722;0.500;2023-10-13T00:02:37;100558.46;;;18.02;100.00
49463;BME280;35357;51.722;0.500;2023-10-13T00:05:05;100546.94;;;17.87;100.00
49463;BME280;35357;51.722;0.500;2023-10-13T00:07:32;100546.90;;;18.18;100.00
49463;BME280;35357;51.722;0.500;2023-10-13T00:09:58;100543.32;;;17.87;100.00
49463;BME280;35357;51.722;0.500;2023-10-13T00:12:25;100540.56;;;17.92;100.00
49463;BME280;35357;51.722;0.500;2023-10-13T00:14:52;100536.31;;;17.20;100.00
49463;BME280;35357;51.722;0.500;2023-10-13T00:17:19;100537.75;;;18.01;100.00
49463;BME280;35357;51.722;0.500;2023-10-13T00:19:46;100535.98;;;17.52;100.00
49463;BME280;35357;51.722;0.500;2023-10-13T00:22:15;100537.29;;;18.09;100.00
49463;BME280;35357;51.722;0.500;2023-10-13T00:24:43;100533.69;;;16.81;100.00
49463;BME280;35357;51.722;0.500;2023-10-13T00:27:11;100529.62;;;17.40;100.00
49463;BME280;35357;51.722;0.500;2023-10-13T00:29:38;100527.22;;;18.17;100.00
49463;BME280;35357;51.722;0.500;2023-10-13T00:32:04;100520.39;;;17.53;100.00
49463;BME280;35357;51.722;0.500;2023-10-13T00:34:31;100517.66;;;18.04;100.00
49463;BME280;35357;51.722;0.500;2023-10-13T00:36:58;100512.28;;;17.51;100.00
49463;BME280;35357;51.722;0.500;2023-10-13T00:39:25;100502.59;;;16.74;100.00
49463;BME280;35357;51.722;0.500;2023-10-13T00:41:51;100501.04;;;17.55;100.00
49463;BME280;35357;51.722;0.500;2023-10-13T00:44:19;100499.25;;;17.60;100.00
49463;BME280;35357;51.722;0.500;2023-10-13T00:46:46;100492.80;;;17.75;100.00
49463;BME280;35357;51.722;0.500;2023-10-13T00:49:13;100486.87;;;16.85;100.00
49463;BME280;35357;51.722;0.500;2023-10-13T00:51:40;100484.81;;;17.39;100.00
49463;BME280;35357;51.722;0.500;2023-10-13T00:54:09;100475.25;;;17.81;100.00
49463;BME280;35357;51.722;0.500;2023-10-13T00:56:37;100467.95;;;17.82;100.00
49463;BME280;35357;51.722;0.500;2023-10-13T00:59:05;100460.19;;;18.22;100.00
49463;BME280;35357;51.722;0.500;2023-10-13T01:01:32;100452.91;;;17.07;100.00
49463;BME280;35357;51.722;0.500;2023-10-13T01:03:59;100445.63;;;17.85;100.00
49463;BME280;35357;51.722;0.500;2023-10-13T01:06:27;100439.87;;;17.12;100.00
49463;BME280;35357;51.722;0.500;2023-10-13T01:08:59;100435.81;;;17.58;100.00
49463;BME280;35357;51.722;0.500;2023-10-13T01:11:26;100430.34;;;17.77;100.00
49463;BME280;35357;51.722;0.500;2023-10-13T01:13:53;100427.46;;;16.85;100.00
49463;BME280;35357;51.722;0.500;2023-10-13T01:16:20;100420.31;;;17.39;100.00
49463;BME280;35357;51.722;0.500;2023-10-13T01:18:47;100411.41;;;17.34;100.00
49463;BME280;35357;51.722;0.500;2023-10-13T01:21:15;100406.42;;;17.38;100.00
49463;BME280;35357;51.722;0.500;2023-10-13T01:23:43;100400.12;;;17.41;100.00
49463;BME280;35357;51.722;0.500;2023-10-13T01:26:10;100390.17;;;16.95;100.00
49463;BME280;35357;51.722;0.500;2023-10-13T01:28:37;100378.00;;;17.30;100.00
49463;BME280;35357;51.722;0.500;2023-10-13T01:31:04;100371.77;;;16.56;100.00
49463;BME280;35357;51.722;0.500;2023-10-13T01:33:31;100363.00;;;17.13;100.00
49463;BME280;35357;51.722;0.500;2023-10-13T01:35:58;100356.18;;;16.89;100.00
49463;BME280;35357;51.722;0.500;2023-10-13T01:38:24;100352.59;;;15.99;100.00
49463;BME280;35357;51.722;0.500;2023-10-13T01:40:51;100349.30;;;16.53;100.00
49463;BME280;35357;51.722;0.500;2023-10-13T01:43:18;100341.75;;;17.04;100.00
49463;BME280;35357;51.722;0.500;2023-10-13T01:45:45;100332.04;;;15.43;100.00
49463;BME280;35357;51.722;0.500;2023-10-13T01:48:12;100330.51;;;14.89;100.00
49463;BME280;35357;51.722;0.500;2023-10-13T01:50:39;100320.78;;;15.35;100.00
49463;BME280;35357;51.722;0.500;2023-10-13T01:53:06;100318.86;;;15.29;100.00
49463;BME280;35357;51.722;0.500;2023-10-13T01:55:33;100318.95;;;16.32;100.00
49463;BME280;35357;51.722;0.500;2023-10-13T01:58:00;100316.02;;;15.38;100.00
49463;BME280;35357;51.722;0.500;2023-10-13T02:00:27;100314.78;;;14.92;100.00
49463;BME280;35357;51.722;0.500;2023-10-13T02:02:54;100308.64;;;15.36;100.00
49463;BME280;35357;51.722;0.500;2023-10-13T02:05:21;100306.19;;;16.28;100.00
49463;BME280;35357;51.722;0.500;2023-10-13T02:07:48;100293.79;;;15.90;100.00
49463;BME280;35357;51.722;0.500;2023-10-13T02:10:15;100282.79;;;15.31;100.00
49463;BME280;35357;51.722;0.500;2023-10-13T02:12:42;100275.19;;;15.61;100.00
49463;BME280;35357;51.722;0.500;2023-10-13T02:15:10;100285.66;;;14.95;100.00
49463;BME280;35357;51.722;0.500;2023-10-13T02:17:39;100281.60;;;15.20;100.00
49463;BME280;35357;51.722;0.500;2023-10-13T02:20:07;100267.97;;;14.93;100.00
49463;BME280;35357;51.722;0.500;2023-10-13T02:22:34;100261.09;;;15.42;100.00
49463;BME280;35357;51.722;0.500;2023-10-13T02:25:02;100251.95;;;15.33;100.00
49463;BME280;35357;51.722;0.500;2023-10-13T02:27:29;100253.69;;;15.81;100.00
49463;BME280;35357;51.722;0.500;2023-10-13T02:29:56;100250.05;;;15.04;100.00
49463;BME280;35357;51.722;0.500;2023-10-13T02:32:23;100242.16;;;14.82;100.00
49463;BME280;35357;51.722;0.500;2023-10-13T02:34:49;100238.47;;;14.49;100.00
49463;BME280;35357;51.722;0.500;2023-10-13T02:37:16;100240.11;;;14.61;100.00
49463;BME280;35357;51.722;0.500;2023-10-13T02:39:43;100238.08;;;14.83;100.00
49463;BME280;35357;51.722;0.500;2023-10-13T02:42:10;100242.22;;;14.55;100.00
49463;BME280;35357;51.722;0.500;2023-10-13T02:44:38;100230.67;;;15.62;100.00
49463;BME280;35357;51.722;0.500;2023-10-13T02:47:05;100230.58;;;15.49;100.00
49463;BME280;35357;51.722;0.500;2023-10-13T02:49:32;100224.43;;;16.27;100.00
49463;BME280;35357;51.722;0.500;2023-10-13T02:51:59;100220.56;;;16.34;100.00
49463;BME280;35357;51.722;0.500;2023-10-13T02:54:25;100204.47;;;16.99;100.00
49463;BME280;35357;51.722;0.500;2023-10-13T02:56:53;100192.14;;;15.67;100.00
49463;BME280;35357;51.722;0.500;2023-10-13T02:59:20;100174.71;;;16.35;100.00
49463;BME280;35357;51.722;0.500;2023-10-13T03:01:46;100166.08;;;15.13;100.00
49463;BME280;35357;51.722;0.500;2023-10-13T03:04:14;100152.91;;;15.48;100.00
49463;BME280;35357;51.722;0.500;2023-10-13T03:06:41;100141.62;;;16.63;100.00
49463;BME280;35357;51.722;0.500;2023-10-13T03:09:09;100142.30;;;16.08;100.00
49463;BME280;35357;51.722;0.500;2023-10-13T03:11:37;100140.33;;;16.95;100.00
49463;BME280;35357;51.722;0.500;2023-10-13T03:14:04;100133.50;;;16.90;100.00
49463;BME280;35357;51.722;0.500;2023-10-13T03:16:31;100126.52;;;17.11;100.00
49463;BME280;35357;51.722;0.500;2023-10-13T03:18:58;100119.71;;;16.76;100.00
49463;BME280;35357;51.722;0.500;2023-10-13T03:21:25;100114.83;;;16.55;100.00
49463;BME280;35357;51.722;0.500;2023-10-13T03:23:52;100111.47;;;16.59;100.00
49463;BME280;35357;51.722;0.500;2023-10-13T03:26:18;100103.26;;;17.04;100.00
49463;BME280;35357;51.722;0.500;2023-10-13T03:28:46;100102.62;;;16.22;100.00
49463;BME280;35357;51.722;0.500;2023-10-13T03:31:13;100097.23;;;16.55;100.00
49463;BME280;35357;51.722;0.500;2023-10-13T03:33:39;100085.95;;;16.55;100.00
49463;BME280;35357;51.722;0.500;2023-10-13T03:36:07;100078.50;;;17.04;100.00
49463;BME280;35357;51.722;0.500;2023-10-13T03:38:34;100072.02;;;16.76;100.00
49463;BME280;35357;51.722;0.500;2023-10-13T03:41:02;100069.14;;;16.60;100.00
49463;BME280;35357;51.722;0.500;2023-10-13T03:43:29;100065.51;;;16.64;100.00
49463;BME280;35357;51.722;0.500;2023-10-13T03:45:56;100065.40;;;15.89;100.00
49463;BME280;35357;51.722;0.500;2023-10-13T03:48:24;100062.19;;;16.24;100.00
49463;BME280;35357;51.722;0.500;2023-10-13T03:50:52;100054.75;;;16.85;100.00
49463;BME280;35357;51.722;0.500;2023-10-13T03:53:20;100040.00;;;16.26;100.00
49463;BME280;35357;51.722;0.500;2023-10-13T03:55:46;100030.50;;;16.43;100.00
49463;BME280;35357;51.722;0.500;2023-10-13T03:58:13;100022.32;;;16.94;100.00
49463;BME280;35357;51.722;0.500;2023-10-13T04:00:41;100013.21;;;16.89;100.00
49463;BME280;35357;51.722;0.500;2023-10-13T04:03:08;100008.89;;;17.10;100.00
49463;BME280;35357;51.722;0.500;2023-10-13T04:05:36;99999.50;;;16.50;100.00
49463;BME280;35357;51.722;0.500;2023-10-13T04:08:04;99988.95;;;17.15;100.00
49463;BME280;35357;51.722;0.500;2023-10-13T04:10:31;99980.45;;;15.89;100.00
49463;BME280;35357;51.722;0.500;2023-10-13T04:12:58;99979.00;;;16.77;100.00
49463;BME280;35357;51.722;0.500;2023-10-13T04:15:25;99973.77;;;16.08;100.00
49463;BME280;35357;51.722;0.500;2023-10-13T04:17:51;99961.71;;;16.35;100.00
49463;BME280;35357;51.722;0.500;2023-10-13T04:20:18;99951.09;;;15.64;100.00
49463;BME280;35357;51.722;0.500;2023-10-13T04:22:46;99947.04;;;16.10;100.00
49463;BME280;35357;51.722;0.500;2023-10-13T04:25:13;99938.72;;;15.32;100.00
49463;BME280;35357;51.722;0.500;2023-10-13T04:27:40;99928.85;;;16.35;100.00
49463;BME280;35357;51.722;0.500;2023-10-13T04:30:08;99913.95;;;15.13;100.00
49463;BME280;35357;51.722;0.500;2023-10-13T04:32:36;99906.83;;;14.97;100.00
49463;BME280;35357;51.722;0.500;2023-10-13T04:35:04;99908.72;;;15.32;100.00
49463;BME280;35357;51.722;0.500;2023-10-13T04:37:31;99911.84;;;16.01;100.00
49463;BME280;35357;51.722;0.500;2023-10-13T04:39:59;99897.84;;;15.63;100.00
49463;BME280;35357;51.722;0.500;2023-10-13T04:42:26;99900.23;;;15.62;100.00
49463;BME280;35357;51.722;0.500;2023-10-13T04:44:52;99888.62;;;15.62;100.00
49463;BME280;35357;51.722;0.500;2023-10-13T04:47:19;99888.06;;;16.39;100.00
49463;BME280;35357;51.722;0.500;2023-10-13T04:49:46;99886.11;;;15.96;100.00
49463;BME280;35357;51.722;0.500;2023-10-13T04:52:13;99883.37;;;15.50;100.00
49463;BME280;35357;51.722;0.500;2023-10-13T04:54:43;99874.86;;;16.46;100.00
49463;BME280;35357;51.722;0.500;2023-10-13T04:57:10;99873.72;;;15.96;100.00
49463;BME280;35357;51.722;0.500;2023-10-13T04:59:37;99867.41;;;15.67;100.00
49463;BME280;35357;51.722;0.500;2023-10-13T05:02:04;99866.86;;;15.93;100.00
49463;BME280;35357;51.722;0.500;2023-10-13T05:04:31;99867.35;;;15.64;100.00
49463;BME280;35357;51.722;0.500;2023-10-13T05:06:57;99863.92;;;16.09;100.00
49463;BME280;35357;51.722;0.500;2023-10-13T05:09:24;99868.85;;;16.04;100.00
49463;BME280;35357;51.722;0.500;2023-10-13T05:11:51;99859.50;;;15.15;100.00
49463;BME280;35357;51.722;0.500;2023-10-13T05:14:19;99861.56;;;15.24;100.00
49463;BME280;35357;51.722;0.500;2023-10-13T05:16:46;99851.03;;;15.37;100.00
49463;BME280;35357;51.722;0.500;2023-10-13T05:19:13;99856.24;;;15.23;100.00
49463;BME280;35357;51.722;0.500;2023-10-13T05:21:40;99839.60;;;15.21;100.00
49463;BME280;35357;51.722;0.500;2023-10-13T05:24:07;99840.12;;;14.82;100.00
49463;BME280;35357;51.722;0.500;2023-10-13T05:26:34;99837.23;;;15.14;100.00
49463;BME280;35357;51.722;0.500;2023-10-13T05:29:01;99828.66;;;15.37;100.00
49463;BME280;35357;51.722;0.500;2023-10-13T05:31:28;99824.99;;;14.98;100.00
49463;BME280;35357;51.722;0.500;2023-10-13T05:33:55;99838.08;;;15.24;100.00
49463;BME280;35357;51.722;0.500;2023-10-13T05:36:22;99825.60;;;14.88;100.00
49463;BME280;35357;51.722;0.500;2023-10-13T05:38:48;99828.11;;;15.00;100.00
49463;BME280;35357;51.722;0.500;2023-10-13T05:41:15;99821.99;;;15.01;100.00
49463;BME280;35357;51.722;0.500;2023-10-13T05:43:42;99808.87;;;15.33;100.00
49463;BME280;35357;51.722;0.500;2023-10-13T05:46:10;99804.15;;;14.94;100.00
49463;BME280;35357;51.722;0.500;2023-10-13T05:48:37;99797.84;;;15.52;100.00
49463;BME280;35357;51.722;0.500;2023-10-13T05:51:03;99802.26;;;15.26;100.00
49463;BME280;35357;51.722;0.500;2023-10-13T05:53:30;99797.05;;;15.06;100.00
49463;BME280;35357;51.722;0.500;2023-10-13T05:56:01;99801.85;;;15.53;100.00
49463;BME280;35357;51.722;0.500;2023-10-13T05:58:28;99804.11;;;15.72;100.00
49463;BME280;35357;51.722;0.500;2023-10-13T06:00:55;99807.54;;;16.02;100.00
49463;BME280;35357;51.722;0.500;2023-10-13T06:03:24;99802.75;;;15.53;100.00
49463;BME280;35357;51.722;0.500;2023-10-13T06:05:51;99805.45;;;15.75;100.00
49463;BME280;35357;51.722;0.500;2023-10-13T06:08:18;99794.69;;;15.89;100.00
49463;BME280;35357;51.722;0.500;2023-10-13T06:10:46;99797.28;;;14.93;100.00
49463;BME280;35357;51.722;0.500;2023-10-13T06:13:13;99788.30;;;15.50;100.00
49463;BME280;35357;51.722;0.500;2023-10-13T06:15:40;99788.82;;;15.76;100.00
49463;BME280;35357;51.722;0.500;2023-10-13T06:18:07;99783.57;;;15.76;100.00
49463;BME280;35357;51.722;0.500;2023-10-13T06:20:39;99773.87;;;16.13;100.00
49463;BME280;35357;51.722;0.500;2023-10-13T06:23:06;99781.22;;;15.34;100.00
49463;BME280;35357;51.722;0.500;2023-10-13T06:25:33;99783.90;;;16.48;100.00
49463;BME280;35357;51.722;0.500;2023-10-13T06:28:01;99785.31;;;15.47;100.00
49463;BME280;35357;51.722;0.500;2023-10-13T06:30:28;99776.29;;;15.61;100.00
49463;BME280;35357;51.722;0.500;2023-10-13T06:32:55;99784.59;;;15.76;100.00
49463;BME280;35357;51.722;0.500;2023-10-13T06:35:22;99776.54;;;15.92;100.00
49463;BME280;35357;51.722;0.500;2023-10-13T06:37:49;99779.47;;;16.69;100.00
49463;BME280;35357;51.722;0.500;2023-10-13T06:40:16;99779.71;;;15.81;100.00
49463;BME280;35357;51.722;0.500;2023-10-13T06:42:44;99777.58;;;16.54;100.00
49463;BME280;35357;51.722;0.500;2023-10-13T06:45:11;99766.37;;;16.67;100.00
49463;BME280;35357;51.722;0.500;2023-10-13T06:47:39;99762.98;;;16.28;100.00
49463;BME280;35357;51.722;0.500;2023-10-13T06:50:07;99758.73;;;16.45;100.00
49463;BME280;35357;51.722;0.500;2023-10-13T06:52:34;99769.20;;;15.92;100.00
49463;BME280;35357;51.722;0.500;2023-10-13T06:55:01;99764.18;;;16.39;100.00
49463;BME280;35357;51.722;0.500;2023-10-13T06:57:28;99756.00;;;16.07;100.00
49463;BME280;35357;51.722;0.500;2023-10-13T06:59:55;99755.23;;;15.89;100.00
49463;BME280;35357;51.722;0.500;2023-10-13T07:02:22;99755.80;;;16.27;100.00
49463;BME280;35357;51.722;0.500;2023-10-13T07:04:50;99764.76;;;16.62;100.00
49463;BME280;35357;51.722;0.500;2023-10-13T07:07:17;99764.52;;;16.31;100.00
49463;BME280;35357;51.722;0.500;2023-10-13T07:09:44;99772.61;;;16.15;100.00
49463;BME280;35357;51.722;0.500;2023-10-13T07:12:11;99771.93;;;16.48;100.00
49463;BME280;35357;51.722;0.500;2023-10-13T07:14:39;99775.77;;;16.36;100.00
49463;BME280;35357;51.722;0.500;2023-10-13T07:17:06;99772.36;;;16.78;100.00
49463;BME280;35357;51.722;0.500;2023-10-13T07:19:33;99773.06;;;16.58;100.00
49463;BME280;35357;51.722;0.500;2023-10-13T07:22:02;99763.46;;;16.89;100.00
49463;BME280;35357;51.722;0.500;2023-10-13T07:24:29;99763.07;;;16.84;100.00
49463;BME280;35357;51.722;0.500;2023-10-13T07:26:57;99770.09;;;16.54;100.00
49463;BME280;35357;51.722;0.500;2023-10-13T07:29:24;99771.87;;;16.92;100.00
49463;BME280;35357;51.722;0.500;2023-10-13T07:31:51;99765.36;;;16.74;100.00
49463;BME280;35357;51.722;0.500;2023-10-13T07:34:19;99767.44;;;17.46;100.00
49463;BME280;35357;51.722;0.500;2023-10-13T07:36:46;99766.61;;;16.29;100.00
49463;BME280;35357;51.722;0.500;2023-10-13T07:39:14;99766.73;;;16.66;100.00
49463;BME280;35357;51.722;0.500;2023-10-13T07:41:41;99766.41;;;16.20;100.00
49463;BME280;35357;51.722;0.500;2023-10-13T07:44:08;99763.48;;;16.55;100.00
49463;BME280;35357;51.722;0.500;2023-10-13T07:46:36;99756.50;;;15.91;100.00
49463;BME280;35357;51.722;0.500;2023-10-13T07:49:02;99755.84;;;16.82;100.00
49463;BME280;35357;51.722;0.500;2023-10-13T07:51:29;99755.14;;;17.20;100.00
49463;BME280;35357;51.722;0.500;2023-10-13T07:53:57;99757.72;;;16.88;100.00
49463;BME280;35357;51.722;0.500;2023-10-13T07:56:24;99755.54;;;17.30;100.00
49463;BME280;35357;51.722;0.500;2023-10-13T07:58:51;99748.54;;;17.22;100.00
49463;BME280;35357;51.722;0.500;2023-10-13T08:01:17;99748.04;;;16.55;100.00
49463;BME280;35357;51.722;0.500;2023-10-13T08:03:44;99749.39;;;16.69;100.00
49463;BME280;35357;51.722;0.500;2023-10-13T08:06:12;99744.84;;;16.95;100.00
49463;BME280;35357;51.722;0.500;2023-10-13T08:08:40;99743.92;;;16.69;100.00
49463;BME280;35357;51.722;0.500;2023-10-13T08:11:08;99742.77;;;17.15;100.00
49463;BME280;35357;51.722;0.500;2023-10-13T08:13:35;99739.03;;;17.66;100.00
49463;BME280;35357;51.722;0.500;2023-10-13T08:16:03;99733.26;;;17.37;100.00
49463;BME280;35357;51.722;0.500;2023-10-13T08:18:30;99730.34;;;17.50;100.00
49463;BME280;35357;51.722;0.500;2023-10-13T08:20:57;99721.92;;;17.45;100.00
49463;BME280;35357;51.722;0.500;2023-10-13T08:23:24;99713.29;;;17.04;100.00
49463;BME280;35357;51.722;0.500;2023-10-13T08:25:51;99714.69;;;16.98;100.00
49463;BME280;35357;51.722;0.500;2023-10-13T08:28:18;99710.10;;;17.26;100.00
49463;BME280;35357;51.722;0.500;2023-10-13T08:30:45;99711.03;;;16.83;100.00
49463;BME280;35357;51.722;0.500;2023-10-13T08:33:12;99711.90;;;17.20;100.00
49463;BME280;35357;51.722;0.500;2023-10-13T08:35:39;99712.53;;;16.46;100.00
49463;BME280;35357;51.722;0.500;2023-10-13T08:38:07;99720.26;;;16.95;100.00
49463;BME280;35357;51.722;0.500;2023-10-13T08:40:35;99724.64;;;17.06;100.00
49463;BME280;35357;51.722;0.500;2023-10-13T08:43:03;99716.95;;;17.06;100.00
49463;BME280;35357;51.722;0.500;2023-10-13T08:45:36;99720.44;;;16.35;100.00
49463;BME280;35357;51.722;0.500;2023-10-13T08:48:06;99720.49;;;17.80;100.00
49463;BME280;35357;51.722;0.500;2023-10-13T08:50:35;99731.51;;;16.91;100.00
49463;BME280;35357;51.722;0.500;2023-10-13T08:53:02;99723.25;;;17.09;100.00
49463;BME280;35357;51.722;0.500;2023-10-13T08:55:29;99718.95;;;16.15;100.00
49463;BME280;35357;51.722;0.500;2023-10-13T08:57:57;99711.71;;;16.33;100.00
49463;BME280;35357;51.722;0.500;2023-10-13T09:00:24;99723.56;;;16.33;100.00
49463;BME280;35357;51.722;0.500;2023-10-13T09:02:51;99726.04;;;16.39;100.00
49463;BME280;35357;51.722;0.500;2023-10-13T09:05:19;99723.87;;;16.87;100.00
49463;BME280;35357;51.722;0.500;2023-10-13T09:07:46;99719.14;;;16.85;100.00
49463;BME280;35357;51.722;0.500;2023-10-13T09:10:22;99723.32;;;16.30;100.00
49463;BME280;35357;51.722;0.500;2023-10-13T09:12:54;99729.89;;;15.81;100.00
49463;BME280;35357;51.722;0.500;2023-10-13T09:15:28;99728.69;;;15.58;100.00
49463;BME280;35357;51.722;0.500;2023-10-13T09:17:56;99731.59;;;15.36;100.00
49463;BME280;35357;51.722;0.500;2023-10-13T09:20:31;99728.67;;;15.26;100.00
49463;BME280;35357;51.722;0.500;2023-10-13T09:22:59;99732.86;;;14.88;100.00
49463;BME280;35357;51.722;0.500;2023-10-13T09:25:26;99733.49;;;15.39;100.00
49463;BME280;35357;51.722;0.500;2023-10-13T09:27:54;99740.43;;;15.53;100.00
49463;BME280;35357;51.722;0.500;2023-10-13T09:30:20;99739.40;;;15.86;100.00
49463;BME280;35357;51.722;0.500;2023-10-13T09:32:47;99737.98;;;16.33;100.00
49463;BME280;35357;51.722;0.500;2023-10-13T09:35:26;99741.91;;;15.57;100.00
49463;BME280;35357;51.722;0.500;2023-10-13T09:37:54;99746.35;;;16.55;100.00
49463;BME280;35357;51.722;0.500;2023-10-13T09:40:23;99739.19;;;15.62;100.00
49463;BME280;35357;51.722;0.500;2023-10-13T09:42:50;99742.88;;;15.79;100.00
49463;BME280;35357;51.722;0.500;2023-10-13T09:45:17;99747.80;;;16.31;100.00
49463;BME280;35357;51.722;0.500;2023-10-13T09:47:47;99749.59;;;17.00;100.00
49463;BME280;35357;51.722;0.500;2023-10-13T09:50:17;99737.78;;;15.77;100.00
49463;BME280;35357;51.722;0.500;2023-10-13T09:52:45;99747.56;;;15.49;100.00
49463;BME280;35357;51.722;0.500;2023-10-13T09:55:19;99746.10;;;16.37;100.00
49463;BME280;35357;51.722;0.500;2023-10-13T09:57:53;99750.67;;;16.33;100.00
49463;BME280;35357;51.722;0.500;2023-10-13T10:00:22;99749.32;;;15.49;100.00
49463;BME280;35357;51.722;0.500;2023-10-13T10:02:50;99744.68;;;15.87;100.00
49463;BME280;35357;51.722;0.500;2023-10-13T10:05:24;99728.22;;;15.80;100.00
49463;BME280;35357;51.722;0.500;2023-10-13T10:07:55;99740.94;;;16.17;100.00
49463;BME280;35357;51.722;0.500;2023-10-13T10:10:22;99737.36;;;16.40;100.00
49463;BME280;35357;51.722;0.500;2023-10-13T10:12:56;99740.19;;;16.01;100.00
49463;BME280;35357;51.722;0.500;2023-10-13T10:15:29;99758.38;;;15.36;100.00
49463;BME280;35357;51.722;0.500;2023-10-13T10:17:57;99754.29;;;16.25;100.00
49463;BME280;35357;51.722;0.500;2023-10-13T10:20:33;99753.20;;;16.54;100.00
49463;BME280;35357;51.722;0.500;2023-10-13T10:23:01;99734.23;;;16.79;100.00
49463;BME280;35357;51.722;0.500;2023-10-13T10:25:30;99743.91;;;16.81;100.00
49463;BME280;35357;51.722;0.500;2023-10-13T10:27:58;99741.66;;;16.44;100.00
49463;BME280;35357;51.722;0.500;2023-10-13T10:30:26;99723.34;;;16.39;100.00
49463;BME280;35357;51.722;0.500;2023-10-13T10:32:55;99722.06;;;15.35;100.00
49463;BME280;35357;51.722;0.500;2023-10-13T10:35:23;99724.44;;;16.61;100.00
49463;BME280;35357;51.722;0.500;2023-10-13T10:37:50;99726.30;;;17.16;100.00
49463;BME280;35357;51.722;0.500;2023-10-13T10:40:18;99723.00;;;16.17;100.00
49463;BME280;35357;51.722;0.500;2023-10-13T10:42:50;99733.34;;;17.21;100.00
49463;BME280;35357;51.722;0.500;2023-10-13T10:45:17;99721.31;;;17.01;100.00
49463;BME280;35357;51.722;0.500;2023-10-13T10:47:48;99725.33;;;16.90;100.00
49463;BME280;35357;51.722;0.500;2023-10-13T10:50:25;99720.66;;;16.48;100.00
49463;BME280;35357;51.722;0.500;2023-10-13T10:52:54;99726.63;;;17.17;100.00
49463;BME280;35357;51.722;0.500;2023-10-13T10:55:21;99728.10;;;17.17;100.00
49463;BME280;35357;51.722;0.500;2023-10-13T10:57:58;99718.81;;;16.98;100.00
49463;BME280;35357;51.722;0.500;2023-10-13T11:00:25;99709.44;;;16.83;100.00
49463;BME280;35357;51.722;0.500;2023-10-13T11:02:55;99707.58;;;16.54;100.00
49463;BME280;35357;51.722;0.500;2023-10-13T11:05:23;99701.15;;;17.82;100.00
49463;BME280;35357;51.722;0.500;2023-10-13T11:07:49;99691.19;;;17.75;100.00
49463;BME280;35357;51.722;0.500;2023-10-13T11:10:17;99693.06;;;17.68;100.00
49463;BME280;35357;51.722;0.500;2023-10-13T11:12:54;99687.94;;;17.81;100.00
49463;BME280;35357;51.722;0.500;2023-10-13T11:15:21;99688.37;;;16.54;100.00
49463;BME280;35357;51.722;0.500;2023-10-13T11:17:49;99694.14;;;16.89;100.00
49463;BME280;35357;51.722;0.500;2023-10-13T11:20:18;99684.46;;;16.62;100.00
49463;BME280;35357;51.722;0.500;2023-10-13T11:22:47;99681.30;;;17.09;100.00
49463;BME280;35357;51.722;0.500;2023-10-13T11:25:23;99674.33;;;16.97;100.00
49463;BME280;35357;51.722;0.500;2023-10-13T11:27:50;99676.41;;;17.19;100.00
49463;BME280;35357;51.722;0.500;2023-10-13T11:30:18;99671.11;;;17.56;100.00
49463;BME280;35357;51.722;0.500;2023-10-13T11:32:45;99665.36;;;17.07;100.00
49463;BME280;35357;51.722;0.500;2023-10-13T11:35:13;99669.37;;;16.74;100.00
49463;BME280;35357;51.722;0.500;2023-10-13T11:37:40;99678.12;;;17.52;100.00
49463;BME280;35357;51.722;0.500;2023-10-13T11:40:08;99672.58;;;17.25;100.00
49463;BME280;35357;51.722;0.500;2023-10-13T11:42:35;99671.63;;;17.49;100.00
49463;BME280;35357;51.722;0.500;2023-10-13T11:45:03;99661.89;;;17.58;100.00
49463;BME280;35357;51.722;0.500;2023-10-13T11:47:31;99680.60;;;17.38;100.00
49463;BME280;35357;51.722;0.500;2023-10-13T11:49:57;99669.84;;;17.63;100.00
49463;BME280;35357;51.722;0.500;2023-10-13T11:52:24;99665.34;;;17.73;100.00
49463;BME280;35357;51.722;0.500;2023-10-13T11:54:51;99665.41;;;17.86;100.00
49463;BME280;35357;51.722;0.500;2023-10-13T11:57:18;99673.30;;;17.08;100.00
49463;BME280;35357;51.722;0.500;2023-10-13T11:59:45;99674.74;;;17.31;100.00
49463;BME280;35357;51.722;0.500;2023-10-13T12:02:12;99659.14;;;17.69;100.00
49463;BME280;35357;51.722;0.500;2023-10-13T12:04:40;99658.68;;;17.44;100.00
49463;BME280;35357;51.722;0.500;2023-10-13T12:07:07;99655.29;;;17.05;100.00
49463;BME280;35357;51.722;0.500;2023-10-13T12:09:34;99657.07;;;16.98;100.00
49463;BME280;35357;51.722;0.500;2023-10-13T12:12:01;99657.44;;;16.80;100.00
49463;BME280;35357;51.722;0.500;2023-10-13T12:14:28;99655.83;;;16.97;100.00
49463;BME280;35357;51.722;0.500;2023-10-13T12:16:55;99663.59;;;17.54;100.00
49463;BME280;35357;51.722;0.500;2023-10-13T12:19:24;99666.07;;;17.46;100.00
49463;BME280;35357;51.722;0.500;2023-10-13T12:21:52;99653.15;;;17.48;100.00
49463;BME280;35357;51.722;0.500;2023-10-13T12:24:19;99666.16;;;17.24;100.00
49463;BME280;35357;51.722;0.500;2023-10-13T12:26:46;99658.40;;;16.84;100.00
49463;BME280;35357;51.722;0.500;2023-10-13T12:29:14;99661.41;;;17.48;100.00
49463;BME280;35357;51.722;0.500;2023-10-13T12:31:40;99653.44;;;17.92;100.00
49463;BME280;35357;51.722;0.500;2023-10-13T12:34:08;99646.87;;;18.58;100.00
49463;BME280;35357;51.722;0.500;2023-10-13T12:36:36;99649.14;;;17.89;100.00
49463;BME280;35357;51.722;0.500;2023-10-13T12:39:03;99650.43;;;17.60;100.00
49463;BME280;35357;51.722;0.500;2023-10-13T12:41:30;99652.36;;;17.85;100.00
49463;BME280;35357;51.722;0.500;2023-10-13T12:43:57;99655.86;;;17.82;100.00
49463;BME280;35357;51.722;0.500;2023-10-13T12:46:24;99649.31;;;18.35;100.00
49463;BME280;35357;51.722;0.500;2023-10-13T12:48:51;99656.84;;;18.13;100.00